createdAt,value
2019-03-12T00:02:12.555Z,16.37
2019-03-12T00:04:53.408Z,18.40
2019-03-12T00:07:34.190Z,16.37
2019-03-12T00:10:15.216Z,15.43
2019-03-12T00:12:56.382Z,15.50
2019-03-12T00:15:37.273Z,14.10
2019-03-12T00:20:48.235Z,15.00
2019-03-12T00:23:17.042Z,15.83
2019-03-12T00:26:05.171Z,13.60
2019-03-12T00:28:53.294Z,15.18
2019-03-12T00:31:41.381Z,15.50
2019-03-12T00:34:29.488Z,14.63
2019-03-12T00:37:17.699Z,10.70
2019-03-12T00:39:46.601Z,13.60
2019-03-12T00:42:34.808Z,14.37
2019-03-12T00:45:22.958Z,12.43
2019-03-12T00:48:11.080Z,13.97
2019-03-12T00:50:40.006Z,15.90
2019-03-12T00:53:28.095Z,13.80
2019-03-12T00:55:56.936Z,15.43
2019-03-12T00:58:45.153Z,15.53
2019-03-12T01:01:33.185Z,13.27
2019-03-12T01:04:21.292Z,16.40
2019-03-12T01:07:09.426Z,16.80
2019-03-12T01:09:57.498Z,14.80
2019-03-12T01:12:38.178Z,16.13
2019-03-12T01:15:18.975Z,19.80
2019-03-12T01:20:41.731Z,22.60
2019-03-12T01:26:05.051Z,20.03
2019-03-12T01:28:46.338Z,21.65
2019-03-12T01:31:27.278Z,18.70
2019-03-12T01:34:08.634Z,18.30
2019-03-12T01:36:49.341Z,22.30
2019-03-12T01:39:29.801Z,19.07
2019-03-12T01:42:10.417Z,18.93
2019-03-12T01:44:51.087Z,20.23
2019-03-12T01:47:31.674Z,24.17
2019-03-12T01:50:12.635Z,25.73
2019-03-12T01:52:53.273Z,20.60
2019-03-12T01:55:33.884Z,17.87
2019-03-12T01:58:14.841Z,16.00
2019-03-12T02:00:43.697Z,18.27
2019-03-12T02:03:12.619Z,22.57
2019-03-12T02:06:00.785Z,21.60
2019-03-12T02:08:48.910Z,18.57
2019-03-12T02:11:37.054Z,17.80
2019-03-12T02:14:26.061Z,19.40
2019-03-12T02:19:49.089Z,16.83
2019-03-12T02:22:17.978Z,20.20
2019-03-12T02:25:06.466Z,15.30
2019-03-12T02:27:54.633Z,18.60
2019-03-12T02:30:42.658Z,18.33
2019-03-12T02:33:30.857Z,13.53
2019-03-12T02:36:18.895Z,16.00
2019-03-12T02:39:07.860Z,20.20
2019-03-12T02:41:55.973Z,17.30
2019-03-12T02:44:44.046Z,13.73
2019-03-12T02:47:32.181Z,17.03
2019-03-12T02:50:20.299Z,15.40
2019-03-12T02:53:08.327Z,10.80
2019-03-12T02:55:56.452Z,12.67
2019-03-12T02:58:44.554Z,12.27
2019-03-12T03:01:32.699Z,12.67
2019-03-12T03:04:20.811Z,14.30
2019-03-12T03:07:28.015Z,11.10
2019-03-12T03:10:16.141Z,11.70
2019-03-12T03:13:04.313Z,11.53
2019-03-12T03:15:52.433Z,12.10
2019-03-12T03:18:33.618Z,11.90
2019-03-12T03:21:14.466Z,13.00
2019-03-12T03:23:55.208Z,11.50
2019-03-12T03:29:18.233Z,13.40
2019-03-12T03:31:47.085Z,9.50
2019-03-12T03:34:15.990Z,16.60
2019-03-12T03:37:04.056Z,14.03
2019-03-12T03:39:33.015Z,8.87
2019-03-12T03:42:21.167Z,8.23
2019-03-12T03:45:09.208Z,8.87
2019-03-12T03:47:56.894Z,13.40
2019-03-12T03:50:44.945Z,11.70
2019-03-12T03:53:33.014Z,11.33
2019-03-12T03:56:21.135Z,13.10
2019-03-12T03:59:09.254Z,9.87
2019-03-12T04:01:57.296Z,11.20
2019-03-12T04:04:45.454Z,10.67
2019-03-12T04:07:33.501Z,10.50
2019-03-12T04:10:21.662Z,12.40
2019-03-12T04:13:09.787Z,20.03
2019-03-12T04:15:38.827Z,13.03
2019-03-12T04:21:40.992Z,11.93
2019-03-12T04:24:21.860Z,11.30
2019-03-12T04:27:02.740Z,11.73
2019-03-12T04:29:43.576Z,11.07
2019-03-12T04:32:23.999Z,16.07
2019-03-12T04:35:05.070Z,15.43
2019-03-12T04:37:33.876Z,16.30
2019-03-12T04:40:02.862Z,17.87
2019-03-12T04:42:51.082Z,11.67
2019-03-12T04:45:39.119Z,14.10
2019-03-12T04:48:27.249Z,11.57
2019-03-12T04:51:15.329Z,12.10
2019-03-12T04:54:03.472Z,12.37
2019-03-12T04:56:51.511Z,12.17
2019-03-12T04:59:39.575Z,11.83
2019-03-12T05:02:27.643Z,14.87
2019-03-12T05:05:15.867Z,18.00
2019-03-12T05:08:04.010Z,12.97
2019-03-12T05:10:52.057Z,13.33
2019-03-12T05:13:40.105Z,13.63
2019-03-12T05:16:28.217Z,14.07
2019-03-12T05:18:57.098Z,10.40
2019-03-12T05:21:45.255Z,17.42
2019-03-12T05:24:33.346Z,14.77
2019-03-12T05:27:21.386Z,10.97
2019-03-12T05:30:10.832Z,11.33
2019-03-12T05:32:58.953Z,13.10
2019-03-12T05:35:47.069Z,12.33
2019-03-12T05:38:35.122Z,8.27
2019-03-12T05:41:23.348Z,8.97
2019-03-12T05:44:11.461Z,9.27
2019-03-12T05:46:59.564Z,5.70
2019-03-12T05:49:47.829Z,8.10
2019-03-12T05:52:35.878Z,9.57
2019-03-12T05:55:23.933Z,7.97
2019-03-12T05:57:52.856Z,10.13
2019-03-12T06:03:30.640Z,10.20
2019-03-12T06:05:59.532Z,6.30
2019-03-12T06:08:47.642Z,7.40
2019-03-12T06:11:35.725Z,6.50
2019-03-12T06:14:23.880Z,8.87
2019-03-12T06:17:12.094Z,9.03
2019-03-12T06:19:53.314Z,10.30
2019-03-12T06:22:33.634Z,5.47
2019-03-12T06:25:14.393Z,11.80
2019-03-12T06:27:55.247Z,7.93
2019-03-12T06:34:09.853Z,7.50
2019-03-12T06:37:15.140Z,9.63
2019-03-12T06:40:14.859Z,5.43
2019-03-12T06:43:14.393Z,8.53
2019-03-12T06:46:13.989Z,7.63
2019-03-12T06:49:14.507Z,23.57
2019-03-12T06:52:13.972Z,23.60
2019-03-12T06:54:52.988Z,12.13
2019-03-12T06:58:19.521Z,8.33
2019-03-12T07:01:27.256Z,6.73
2019-03-12T07:04:24.610Z,7.50
2019-03-12T07:07:19.571Z,6.80
2019-03-12T07:10:27.437Z,5.43
2019-03-12T07:13:34.617Z,7.83
2019-03-12T07:16:41.785Z,9.97
2019-03-12T07:19:48.996Z,7.73
2019-03-12T07:22:45.981Z,9.83
2019-03-12T07:25:38.940Z,18.30
2019-03-12T07:28:50.218Z,13.57
2019-03-12T07:31:55.031Z,9.33
2019-03-12T07:34:51.264Z,11.50
2019-03-12T07:37:58.420Z,6.63
2019-03-12T07:41:05.621Z,7.87
2019-03-12T07:44:05.722Z,7.70
2019-03-12T07:46:50.076Z,7.77
2019-03-12T07:49:38.176Z,9.73
2019-03-12T07:52:41.663Z,7.07
2019-03-12T07:55:40.020Z,8.73
2019-03-12T07:58:46.078Z,5.93
2019-03-12T08:01:37.047Z,13.13
2019-03-12T08:04:26.565Z,7.77
2019-03-12T08:07:27.111Z,6.67
2019-03-12T08:10:19.838Z,4.83
2019-03-12T08:13:12.639Z,6.33
2019-03-12T08:16:01.903Z,9.60
2019-03-12T08:19:01.539Z,5.57
2019-03-12T08:22:04.761Z,5.90
2019-03-12T08:24:52.822Z,15.33
2019-03-12T08:27:53.185Z,4.53
2019-03-12T08:30:41.797Z,10.07
2019-03-12T08:33:29.802Z,5.80
2019-03-12T08:36:37.087Z,8.70
2019-03-12T08:39:32.632Z,10.17
2019-03-12T08:42:39.749Z,5.70
2019-03-12T08:45:48.803Z,4.73
2019-03-12T08:48:36.702Z,11.10
2019-03-12T08:51:43.906Z,6.03
2019-03-12T08:54:54.498Z,6.33
2019-03-12T08:57:48.561Z,9.70
2019-03-12T09:00:55.706Z,7.47
2019-03-12T09:04:02.853Z,16.00
2019-03-12T09:07:10.113Z,6.80
2019-03-12T09:10:17.254Z,7.10
2019-03-12T09:16:24.369Z,7.63
2019-03-12T09:19:31.554Z,11.40
2019-03-12T09:22:38.774Z,7.67
2019-03-12T09:25:29.731Z,30.47
2019-03-12T09:28:35.587Z,9.20
2019-03-12T09:31:39.137Z,9.53
2019-03-12T09:37:46.695Z,17.47
2019-03-12T09:40:53.938Z,12.17
2019-03-12T09:44:01.046Z,9.20
2019-03-12T09:47:08.178Z,8.60
2019-03-12T09:50:00.786Z,8.27
2019-03-12T09:53:07.919Z,8.35
2019-03-12T09:56:15.038Z,7.60
2019-03-12T09:59:22.183Z,8.80
2019-03-12T10:02:21.967Z,16.20
2019-03-12T10:05:29.249Z,9.77
2019-03-12T10:08:36.449Z,11.83
2019-03-12T10:11:24.418Z,6.93
2019-03-12T10:14:31.578Z,12.37
2019-03-12T10:17:38.826Z,12.45
2019-03-12T10:20:28.058Z,10.33
2019-03-12T10:23:35.219Z,18.67
2019-03-12T10:26:35.382Z,16.73
2019-03-12T10:29:34.793Z,11.60
2019-03-12T10:32:27.912Z,11.80
2019-03-12T10:35:33.586Z,11.43
2019-03-12T10:38:25.349Z,12.13
2019-03-12T10:41:19.243Z,9.47
2019-03-12T10:44:16.493Z,11.73
2019-03-12T10:47:23.710Z,8.60
2019-03-12T10:50:11.836Z,11.63
2019-03-12T10:52:53.108Z,13.77
2019-03-12T10:55:34.194Z,13.73
2019-03-12T10:58:14.915Z,18.70
2019-03-12T11:00:55.675Z,9.33
2019-03-12T11:03:36.348Z,10.27
2019-03-12T11:06:17.018Z,11.67
2019-03-12T11:08:57.911Z,15.97
2019-03-12T11:11:38.533Z,8.73
2019-03-12T11:14:19.473Z,14.80
2019-03-12T11:17:00.497Z,13.37
2019-03-12T11:19:41.131Z,12.30
2019-03-12T11:25:05.096Z,13.10
2019-03-12T11:30:28.266Z,10.87
2019-03-12T11:32:57.226Z,24.53
2019-03-12T11:35:45.415Z,12.73
2019-03-12T11:38:33.924Z,10.73
2019-03-12T11:41:23.352Z,12.57
2019-03-12T11:44:11.617Z,12.20
2019-03-12T11:46:59.751Z,17.57
2019-03-12T11:49:28.595Z,10.47
2019-03-12T11:52:16.745Z,32.80
2019-03-12T11:54:58.071Z,27.63
2019-03-12T11:57:39.245Z,12.50
2019-03-12T12:00:26.041Z,15.90
2019-03-12T12:03:07.354Z,15.47
2019-03-12T12:05:48.764Z,15.83
2019-03-12T12:08:30.176Z,14.90
2019-03-12T12:11:11.226Z,14.53
2019-03-12T12:13:52.219Z,9.87
2019-03-12T12:19:14.872Z,12.80
2019-03-12T12:21:55.529Z,16.07
2019-03-12T12:24:36.475Z,10.83
2019-03-12T12:27:17.154Z,15.30
2019-03-12T12:29:57.935Z,18.53
2019-03-12T12:32:38.654Z,14.03
2019-03-12T12:35:19.885Z,20.80
2019-03-12T12:38:00.620Z,13.67
2019-03-12T12:40:41.148Z,8.00
2019-03-12T12:43:21.776Z,14.17
2019-03-12T12:46:01.187Z,14.40
2019-03-12T12:48:49.554Z,20.40
2019-03-12T12:51:37.624Z,22.30
2019-03-12T12:54:25.765Z,16.33
2019-03-12T12:57:13.889Z,15.20
2019-03-12T13:00:02.273Z,17.73
2019-03-12T13:02:50.478Z,15.03
2019-03-12T13:05:38.732Z,13.33
2019-03-12T13:08:26.913Z,17.10
2019-03-12T13:11:15.013Z,13.60
2019-03-12T13:14:03.154Z,11.93
2019-03-12T13:16:51.284Z,18.50
2019-03-12T13:19:39.521Z,11.90
2019-03-12T13:22:29.194Z,25.77
2019-03-12T13:25:17.363Z,11.37
2019-03-12T13:27:46.343Z,8.20
2019-03-12T13:30:17.795Z,9.57
2019-03-12T13:33:05.994Z,11.63
2019-03-12T13:35:54.202Z,10.03
2019-03-12T13:38:45.994Z,10.67
2019-03-12T13:41:32.244Z,9.97
2019-03-12T13:44:20.435Z,9.03
2019-03-12T13:47:00.931Z,6.37
2019-03-12T13:49:42.110Z,8.73
2019-03-12T13:52:23.213Z,9.87
2019-03-12T13:54:52.245Z,9.60
2019-03-12T13:57:33.481Z,15.30
2019-03-12T14:00:02.597Z,11.33
2019-03-12T14:02:50.205Z,10.10
2019-03-12T14:08:37.530Z,8.47
2019-03-12T14:11:25.753Z,7.85
2019-03-12T14:14:13.952Z,8.57
2019-03-12T14:17:02.281Z,8.80
2019-03-12T14:19:50.537Z,7.87
2019-03-12T14:22:38.753Z,7.70
2019-03-12T14:25:27.573Z,6.43
2019-03-12T14:28:15.608Z,9.23
2019-03-12T14:31:04.224Z,5.10
2019-03-12T14:33:52.440Z,7.27
2019-03-12T14:36:40.670Z,11.30
2019-03-12T14:39:28.924Z,8.53
2019-03-12T14:42:17.145Z,7.70
2019-03-12T14:45:25.946Z,8.20
2019-03-12T14:48:33.309Z,8.53
2019-03-12T14:51:40.762Z,10.80
2019-03-12T14:54:28.898Z,9.85
2019-03-12T14:57:17.083Z,7.83
2019-03-12T14:59:57.458Z,7.87
2019-03-12T15:02:41.593Z,15.97
2019-03-12T15:05:23.375Z,11.00
2019-03-12T15:07:52.495Z,8.50
2019-03-12T15:10:40.578Z,10.43
2019-03-12T15:13:28.697Z,12.67
2019-03-12T15:16:16.774Z,6.17
2019-03-12T15:19:05.026Z,8.17
2019-03-12T15:21:53.219Z,10.57
2019-03-12T15:24:41.461Z,6.27
2019-03-12T15:27:29.620Z,8.63
2019-03-12T15:30:18.323Z,11.77
2019-03-12T15:33:06.737Z,6.70
2019-03-12T15:35:54.826Z,11.13
2019-03-12T15:38:42.969Z,9.60
2019-03-12T15:41:31.192Z,6.87
2019-03-12T15:44:19.562Z,6.77
2019-03-12T15:47:09.155Z,10.20
2019-03-12T15:49:57.235Z,9.23
2019-03-12T15:52:45.382Z,8.10
2019-03-12T15:55:33.453Z,9.03
2019-03-12T15:58:22.268Z,12.27
2019-03-12T16:03:49.263Z,25.10
2019-03-12T16:06:30.559Z,10.17
2019-03-12T16:09:11.521Z,10.17
2019-03-12T16:11:52.260Z,13.73
2019-03-12T16:14:38.307Z,9.73
2019-03-12T16:17:19.765Z,10.07
2019-03-12T16:20:01.332Z,12.70
2019-03-12T16:22:30.575Z,9.47
2019-03-12T16:25:18.720Z,9.40
2019-03-12T16:28:07.043Z,12.85
2019-03-12T16:30:55.269Z,11.80
2019-03-12T16:33:43.429Z,9.57
2019-03-12T16:36:31.584Z,11.07
2019-03-12T16:39:19.832Z,9.00
2019-03-12T16:42:07.959Z,9.60
2019-03-12T16:44:56.057Z,16.40
2019-03-12T16:47:25.064Z,11.33
2019-03-12T16:50:13.318Z,7.37
2019-03-12T16:53:01.385Z,11.60
2019-03-12T16:55:49.658Z,11.77
2019-03-12T16:58:37.979Z,8.53
2019-03-12T17:01:19.257Z,9.50
2019-03-12T17:04:00.133Z,8.87
2019-03-12T17:06:41.465Z,11.70
2019-03-12T17:09:22.267Z,8.93
2019-03-12T17:12:02.868Z,8.63
2019-03-12T17:14:43.831Z,6.33
2019-03-12T17:17:24.460Z,8.47
2019-03-12T17:20:05.994Z,8.67
2019-03-12T17:22:46.613Z,14.30
2019-03-12T17:25:15.806Z,11.83
2019-03-12T17:28:04.060Z,7.73
2019-03-12T17:30:52.365Z,8.50
2019-03-12T17:33:40.578Z,6.33
2019-03-12T17:36:28.807Z,10.07
2019-03-12T17:39:16.927Z,8.30
2019-03-12T17:42:05.090Z,11.03
2019-03-12T17:44:53.258Z,9.07
2019-03-12T17:47:41.417Z,9.40
2019-03-12T17:50:29.756Z,10.37
2019-03-12T17:53:18.289Z,12.10
2019-03-12T17:56:06.496Z,12.60
2019-03-12T17:58:54.745Z,8.97
2019-03-12T18:01:42.952Z,12.03
2019-03-12T18:04:26.493Z,8.87
2019-03-12T18:07:07.258Z,15.17
2019-03-12T18:09:48.198Z,11.20
2019-03-12T18:12:29.242Z,7.83
2019-03-12T18:15:10.291Z,9.70
2019-03-12T18:17:53.770Z,11.00
2019-03-12T18:20:36.274Z,9.33
2019-03-12T18:23:17.007Z,6.40
2019-03-12T18:28:28.439Z,11.53
2019-03-12T18:31:16.669Z,12.93
2019-03-12T18:34:04.850Z,16.10
2019-03-12T18:36:53.048Z,14.93
2019-03-12T18:39:22.060Z,13.23
2019-03-12T18:42:10.513Z,7.47
2019-03-12T18:44:58.799Z,6.67
2019-03-12T18:47:47.420Z,8.07
2019-03-12T18:50:35.674Z,6.53
2019-03-12T18:53:23.780Z,7.60
2019-03-12T18:56:11.975Z,7.37
2019-03-12T18:59:00.530Z,7.87
2019-03-12T19:01:48.949Z,6.70
2019-03-12T19:04:20.993Z,7.53
2019-03-12T19:07:09.113Z,9.27
2019-03-12T19:10:12.953Z,8.10
2019-03-12T19:13:06.784Z,9.50
2019-03-12T19:15:55.427Z,10.10
2019-03-12T19:18:43.808Z,9.87
2019-03-12T19:21:14.937Z,12.60
2019-03-12T19:24:03.130Z,19.97
2019-03-12T19:26:32.395Z,20.30
2019-03-12T19:29:20.727Z,12.73
2019-03-12T19:32:14.254Z,27.43
2019-03-12T19:35:04.978Z,11.13
2019-03-12T19:37:34.336Z,13.70
2019-03-12T19:40:22.688Z,9.53
2019-03-12T19:43:10.909Z,11.47
2019-03-12T19:45:59.143Z,5.87
2019-03-12T19:48:47.338Z,6.43
2019-03-12T19:51:35.736Z,5.10
2019-03-12T19:57:34.298Z,5.80
2019-03-12T20:05:49.544Z,5.03
2019-03-12T20:08:44.961Z,4.70
2019-03-12T20:11:52.363Z,6.67
2019-03-12T20:15:02.025Z,4.47
2019-03-12T20:17:49.363Z,5.93
2019-03-12T20:20:57.029Z,5.70
2019-03-12T20:24:04.655Z,7.23
2019-03-12T20:27:12.179Z,5.13
2019-03-12T20:30:20.025Z,4.97
2019-03-12T20:33:27.329Z,4.97
2019-03-12T20:36:34.694Z,6.50
2019-03-12T20:39:42.187Z,10.07
2019-03-12T20:42:49.538Z,5.53
2019-03-12T20:46:09.222Z,3.40
2019-03-12T20:49:15.837Z,11.70
2019-03-12T20:59:29.290Z,5.30
2019-03-12T21:02:38.851Z,5.40
2019-03-12T21:05:46.242Z,6.27
2019-03-12T21:08:27.254Z,3.23
2019-03-12T21:11:37.667Z,5.28
2019-03-12T21:14:45.296Z,3.07
2019-03-12T21:17:52.822Z,4.33
2019-03-12T21:21:00.274Z,4.90
2019-03-12T21:27:16.311Z,4.97
2019-03-12T21:30:04.386Z,6.37
2019-03-12T21:32:53.480Z,6.40
2019-03-12T21:35:41.693Z,3.93
2019-03-12T21:38:29.988Z,3.47
2019-03-12T21:40:59.553Z,5.37
2019-03-12T21:43:47.974Z,5.27
2019-03-12T21:46:36.352Z,6.07
2019-03-12T21:49:24.925Z,8.53
2019-03-12T21:52:13.664Z,12.97
2019-03-12T21:55:02.021Z,9.57
2019-03-12T21:57:31.610Z,6.63
2019-03-12T22:00:00.820Z,5.47
2019-03-12T22:02:49.049Z,5.37
2019-03-12T22:05:18.325Z,5.07
2019-03-12T22:07:47.377Z,6.57
2019-03-12T22:10:41.966Z,4.30
2019-03-12T22:13:28.420Z,6.37
2019-03-12T22:16:16.662Z,3.43
2019-03-12T22:19:04.862Z,4.37
2019-03-12T22:22:12.298Z,3.87
2019-03-12T22:24:41.286Z,4.23
2019-03-12T22:27:10.245Z,2.73
2019-03-12T22:29:58.425Z,3.37
2019-03-12T22:32:46.824Z,5.90
2019-03-12T22:35:35.081Z,5.70
2019-03-12T22:38:23.206Z,2.93
2019-03-12T22:40:52.192Z,2.53
2019-03-12T22:43:40.278Z,3.23
2019-03-12T22:46:47.891Z,3.73
2019-03-12T22:49:36.122Z,2.77
2019-03-12T22:52:24.307Z,8.13
2019-03-12T22:55:12.486Z,6.03
2019-03-12T22:58:00.561Z,3.80
2019-03-12T23:00:49.270Z,6.80
2019-03-12T23:03:37.743Z,5.53
2019-03-12T23:06:28.543Z,2.83
2019-03-12T23:09:08.327Z,11.07
2019-03-12T23:11:49.299Z,15.83
2019-03-12T23:14:29.848Z,13.27
2019-03-12T23:17:10.827Z,5.83
2019-03-12T23:19:40.061Z,6.73
2019-03-12T23:22:28.301Z,11.67
2019-03-12T23:25:18.107Z,19.77
2019-03-12T23:28:06.669Z,17.67
2019-03-12T23:30:55.341Z,7.47
2019-03-12T23:33:43.494Z,4.37
2019-03-12T23:36:31.643Z,4.70
2019-03-12T23:39:00.591Z,5.47
2019-03-12T23:41:48.836Z,10.77
2019-03-12T23:44:37.055Z,12.83
2019-03-12T23:47:25.279Z,3.73
2019-03-12T23:53:22.629Z,12.97
2019-03-12T23:55:51.605Z,14.33
2019-03-12T23:58:39.675Z,11.73
